sensor_id;sensor_type;location;lat;lon;timestamp;temperature;humidity
21353;DHT22;10834;52.268;6.770;2024-03-02T00:01:26;7.50;99.90
21353;DHT22;10834;52.268;6.770;2024-03-02T00:04:10;7.50;99.90
21353;DHT22;10834;52.268;6.770;2024-03-02T00:06:55;7.50;99.90
21353;DHT22;10834;52.268;6.770;2024-03-02T00:09:39;7.60;99.90
21353;DHT22;10834;52.268;6.770;2024-03-02T00:12:23;7.70;99.90
21353;DHT22;10834;52.268;6.770;2024-03-02T00:18:33;7.80;99.90
21353;DHT22;10834;52.268;6.770;2024-03-02T00:21:17;7.80;99.90
21353;DHT22;10834;52.268;6.770;2024-03-02T00:27:31;8.00;99.90
21353;DHT22;10834;52.268;6.770;2024-03-02T00:33:48;8.00;99.90
21353;DHT22;10834;52.268;6.770;2024-03-02T00:36:33;8.00;99.90
21353;DHT22;10834;52.268;6.770;2024-03-02T00:39:17;8.00;99.90
21353;DHT22;10834;52.268;6.770;2024-03-02T00:42:02;7.90;99.90
21353;DHT22;10834;52.268;6.770;2024-03-02T00:44:47;7.80;99.90
21353;DHT22;10834;52.268;6.770;2024-03-02T00:47:32;7.90;99.90
21353;DHT22;10834;52.268;6.770;2024-03-02T00:50:17;7.80;99.90
21353;DHT22;10834;52.268;6.770;2024-03-02T00:53:02;7.70;99.90
21353;DHT22;10834;52.268;6.770;2024-03-02T00:55:46;7.70;99.90
21353;DHT22;10834;52.268;6.770;2024-03-02T00:58:31;7.70;99.90
21353;DHT22;10834;52.268;6.770;2024-03-02T01:01:16;7.80;99.90
21353;DHT22;10834;52.268;6.770;2024-03-02T01:04:01;7.90;99.90
21353;DHT22;10834;52.268;6.770;2024-03-02T01:06:45;7.90;99.90
21353;DHT22;10834;52.268;6.770;2024-03-02T01:09:29;7.90;99.90
21353;DHT22;10834;52.268;6.770;2024-03-02T01:12:13;7.90;99.90
21353;DHT22;10834;52.268;6.770;2024-03-02T01:14:58;7.90;99.90
21353;DHT22;10834;52.268;6.770;2024-03-02T01:17:42;7.90;99.90
21353;DHT22;10834;52.268;6.770;2024-03-02T01:20:26;7.90;99.90
21353;DHT22;10834;52.268;6.770;2024-03-02T01:23:11;7.90;99.90
21353;DHT22;10834;52.268;6.770;2024-03-02T01:25:55;7.90;99.90
21353;DHT22;10834;52.268;6.770;2024-03-02T01:28:40;7.80;99.90
21353;DHT22;10834;52.268;6.770;2024-03-02T01:31:24;7.80;99.90
21353;DHT22;10834;52.268;6.770;2024-03-02T01:34:08;7.70;99.90
21353;DHT22;10834;52.268;6.770;2024-03-02T01:36:53;7.70;99.90
21353;DHT22;10834;52.268;6.770;2024-03-02T01:39:37;7.60;99.90
21353;DHT22;10834;52.268;6.770;2024-03-02T01:42:21;7.70;99.90
21353;DHT22;10834;52.268;6.770;2024-03-02T01:45:06;7.70;99.90
21353;DHT22;10834;52.268;6.770;2024-03-02T01:47:51;7.70;99.90
21353;DHT22;10834;52.268;6.770;2024-03-02T01:50:36;7.80;99.90
21353;DHT22;10834;52.268;6.770;2024-03-02T01:53:20;7.80;99.90
21353;DHT22;10834;52.268;6.770;2024-03-02T01:56:05;7.80;99.90
21353;DHT22;10834;52.268;6.770;2024-03-02T01:58:49;7.90;99.90
21353;DHT22;10834;52.268;6.770;2024-03-02T02:01:34;7.90;99.90
21353;DHT22;10834;52.268;6.770;2024-03-02T02:04:18;7.90;99.90
21353;DHT22;10834;52.268;6.770;2024-03-02T02:07:02;7.90;99.90
21353;DHT22;10834;52.268;6.770;2024-03-02T02:09:46;7.90;99.90
21353;DHT22;10834;52.268;6.770;2024-03-02T02:12:30;7.90;99.90
21353;DHT22;10834;52.268;6.770;2024-03-02T02:18:11;7.90;99.90
21353;DHT22;10834;52.268;6.770;2024-03-02T02:20:55;7.90;99.90
21353;DHT22;10834;52.268;6.770;2024-03-02T02:23:39;7.90;99.90
21353;DHT22;10834;52.268;6.770;2024-03-02T02:26:23;7.90;99.90
21353;DHT22;10834;52.268;6.770;2024-03-02T02:29:08;7.90;99.90
21353;DHT22;10834;52.268;6.770;2024-03-02T02:31:52;7.90;99.90
21353;DHT22;10834;52.268;6.770;2024-03-02T02:34:36;7.90;99.90
21353;DHT22;10834;52.268;6.770;2024-03-02T02:37:20;7.90;99.90
21353;DHT22;10834;52.268;6.770;2024-03-02T02:40:04;8.00;99.90
21353;DHT22;10834;52.268;6.770;2024-03-02T02:42:49;8.00;99.90
21353;DHT22;10834;52.268;6.770;2024-03-02T02:45:33;8.00;99.90
21353;DHT22;10834;52.268;6.770;2024-03-02T02:48:17;8.00;99.90
21353;DHT22;10834;52.268;6.770;2024-03-02T02:51:02;8.00;99.90
21353;DHT22;10834;52.268;6.770;2024-03-02T02:53:46;8.00;99.90
21353;DHT22;10834;52.268;6.770;2024-03-02T02:56:30;8.10;99.90
21353;DHT22;10834;52.268;6.770;2024-03-02T02:59:14;8.10;99.90
21353;DHT22;10834;52.268;6.770;2024-03-02T03:01:58;8.00;99.90
21353;DHT22;10834;52.268;6.770;2024-03-02T03:04:43;8.10;99.90
21353;DHT22;10834;52.268;6.770;2024-03-02T03:07:27;8.10;99.90
21353;DHT22;10834;52.268;6.770;2024-03-02T03:10:11;8.10;99.90
21353;DHT22;10834;52.268;6.770;2024-03-02T03:12:56;8.10;99.90
21353;DHT22;10834;52.268;6.770;2024-03-02T03:15:40;8.10;99.90
21353;DHT22;10834;52.268;6.770;2024-03-02T03:18:24;8.10;99.90
21353;DHT22;10834;52.268;6.770;2024-03-02T03:21:08;8.10;99.90
21353;DHT22;10834;52.268;6.770;2024-03-02T03:23:52;8.00;99.90
21353;DHT22;10834;52.268;6.770;2024-03-02T03:26:36;8.00;99.90
21353;DHT22;10834;52.268;6.770;2024-03-02T03:29:21;8.00;99.90
21353;DHT22;10834;52.268;6.770;2024-03-02T03:32:05;7.80;99.90
21353;DHT22;10834;52.268;6.770;2024-03-02T03:34:50;7.70;99.90
21353;DHT22;10834;52.268;6.770;2024-03-02T03:37:35;7.60;99.90
21353;DHT22;10834;52.268;6.770;2024-03-02T03:40:19;7.50;99.90
21353;DHT22;10834;52.268;6.770;2024-03-02T03:43:04;7.40;99.90
21353;DHT22;10834;52.268;6.770;2024-03-02T03:45:48;7.40;99.90
21353;DHT22;10834;52.268;6.770;2024-03-02T03:48:33;7.30;99.90
21353;DHT22;10834;52.268;6.770;2024-03-02T03:51:17;7.30;99.90
21353;DHT22;10834;52.268;6.770;2024-03-02T03:54:01;7.30;99.90
21353;DHT22;10834;52.268;6.770;2024-03-02T03:56:45;7.20;99.90
21353;DHT22;10834;52.268;6.770;2024-03-02T03:59:30;7.20;99.90
21353;DHT22;10834;52.268;6.770;2024-03-02T04:02:14;7.10;99.90
21353;DHT22;10834;52.268;6.770;2024-03-02T04:04:58;7.20;99.90
21353;DHT22;10834;52.268;6.770;2024-03-02T04:07:42;7.10;99.90
21353;DHT22;10834;52.268;6.770;2024-03-02T04:10:27;7.20;99.90
21353;DHT22;10834;52.268;6.770;2024-03-02T04:13:11;7.30;99.90
21353;DHT22;10834;52.268;6.770;2024-03-02T04:15:55;7.40;99.90
21353;DHT22;10834;52.268;6.770;2024-03-02T04:18:39;7.50;99.90
21353;DHT22;10834;52.268;6.770;2024-03-02T04:21:23;7.70;99.90
21353;DHT22;10834;52.268;6.770;2024-03-02T04:24:07;7.80;99.90
21353;DHT22;10834;52.268;6.770;2024-03-02T04:26:52;7.90;99.90
21353;DHT22;10834;52.268;6.770;2024-03-02T04:29:36;7.90;99.90
21353;DHT22;10834;52.268;6.770;2024-03-02T04:32:21;8.00;99.90
21353;DHT22;10834;52.268;6.770;2024-03-02T04:35:05;8.00;99.90
21353;DHT22;10834;52.268;6.770;2024-03-02T04:37:52;8.10;99.90
21353;DHT22;10834;52.268;6.770;2024-03-02T04:40:36;8.20;99.90
21353;DHT22;10834;52.268;6.770;2024-03-02T04:43:20;8.30;99.90
21353;DHT22;10834;52.268;6.770;2024-03-02T04:46:05;8.30;99.90
21353;DHT22;10834;52.268;6.770;2024-03-02T04:48:50;8.20;99.90
21353;DHT22;10834;52.268;6.770;2024-03-02T04:51:39;8.10;99.90
21353;DHT22;10834;52.268;6.770;2024-03-02T04:54:23;8.10;99.90
21353;DHT22;10834;52.268;6.770;2024-03-02T04:57:07;8.20;99.90
21353;DHT22;10834;52.268;6.770;2024-03-02T04:59:52;8.30;99.90
21353;DHT22;10834;52.268;6.770;2024-03-02T05:02:36;8.40;99.90
21353;DHT22;10834;52.268;6.770;2024-03-02T05:05:20;8.50;99.90
21353;DHT22;10834;52.268;6.770;2024-03-02T05:08:04;8.50;99.90
21353;DHT22;10834;52.268;6.770;2024-03-02T05:10:48;8.60;99.90
21353;DHT22;10834;52.268;6.770;2024-03-02T05:13:32;8.50;99.90
21353;DHT22;10834;52.268;6.770;2024-03-02T05:16:16;8.50;99.90
21353;DHT22;10834;52.268;6.770;2024-03-02T05:19:00;8.40;99.90
21353;DHT22;10834;52.268;6.770;2024-03-02T05:21:45;8.30;99.90
21353;DHT22;10834;52.268;6.770;2024-03-02T05:24:29;8.20;99.90
21353;DHT22;10834;52.268;6.770;2024-03-02T05:27:13;8.10;99.90
21353;DHT22;10834;52.268;6.770;2024-03-02T05:29:57;8.00;99.90
21353;DHT22;10834;52.268;6.770;2024-03-02T05:32:42;8.00;99.90
21353;DHT22;10834;52.268;6.770;2024-03-02T05:35:26;7.90;99.90
21353;DHT22;10834;52.268;6.770;2024-03-02T05:38:10;7.80;99.90
21353;DHT22;10834;52.268;6.770;2024-03-02T05:40:54;7.80;99.90
21353;DHT22;10834;52.268;6.770;2024-03-02T05:43:38;7.80;99.90
21353;DHT22;10834;52.268;6.770;2024-03-02T05:46:23;7.80;99.90
21353;DHT22;10834;52.268;6.770;2024-03-02T05:49:07;7.70;99.90
21353;DHT22;10834;52.268;6.770;2024-03-02T05:51:52;7.60;99.90
21353;DHT22;10834;52.268;6.770;2024-03-02T05:54:36;7.60;99.90
21353;DHT22;10834;52.268;6.770;2024-03-02T05:57:20;7.50;99.90
21353;DHT22;10834;52.268;6.770;2024-03-02T06:00:22;7.50;99.90
21353;DHT22;10834;52.268;6.770;2024-03-02T06:03:07;7.50;99.90
21353;DHT22;10834;52.268;6.770;2024-03-02T06:05:53;7.40;99.90
21353;DHT22;10834;52.268;6.770;2024-03-02T06:08:37;7.30;99.90
21353;DHT22;10834;52.268;6.770;2024-03-02T06:11:22;7.30;99.90
21353;DHT22;10834;52.268;6.770;2024-03-02T06:14:08;7.10;99.90
21353;DHT22;10834;52.268;6.770;2024-03-02T06:16:52;7.10;99.90
21353;DHT22;10834;52.268;6.770;2024-03-02T06:19:36;7.10;99.90
21353;DHT22;10834;52.268;6.770;2024-03-02T06:22:20;7.10;99.90
21353;DHT22;10834;52.268;6.770;2024-03-02T06:25:07;7.10;99.90
21353;DHT22;10834;52.268;6.770;2024-03-02T06:27:51;7.10;99.90
21353;DHT22;10834;52.268;6.770;2024-03-02T06:30:35;7.20;99.90
21353;DHT22;10834;52.268;6.770;2024-03-02T06:33:19;7.20;99.90
21353;DHT22;10834;52.268;6.770;2024-03-02T06:36:04;7.30;99.90
21353;DHT22;10834;52.268;6.770;2024-03-02T06:38:48;7.40;99.90
21353;DHT22;10834;52.268;6.770;2024-03-02T06:41:33;7.50;99.90
21353;DHT22;10834;52.268;6.770;2024-03-02T06:44:18;7.60;99.90
21353;DHT22;10834;52.268;6.770;2024-03-02T06:47:02;7.60;99.90
21353;DHT22;10834;52.268;6.770;2024-03-02T06:49:46;7.70;99.90
21353;DHT22;10834;52.268;6.770;2024-03-02T06:52:30;7.70;99.90
21353;DHT22;10834;52.268;6.770;2024-03-02T06:55:14;7.80;99.90
21353;DHT22;10834;52.268;6.770;2024-03-02T06:57:58;7.90;99.90
21353;DHT22;10834;52.268;6.770;2024-03-02T07:00:43;7.90;99.90
21353;DHT22;10834;52.268;6.770;2024-03-02T07:03:28;7.90;99.90
21353;DHT22;10834;52.268;6.770;2024-03-02T07:06:12;7.80;99.90
21353;DHT22;10834;52.268;6.770;2024-03-02T07:08:56;7.80;99.90
21353;DHT22;10834;52.268;6.770;2024-03-02T07:11:41;7.80;99.90
21353;DHT22;10834;52.268;6.770;2024-03-02T07:14:25;7.80;99.90
21353;DHT22;10834;52.268;6.770;2024-03-02T07:17:32;7.80;99.90
21353;DHT22;10834;52.268;6.770;2024-03-02T07:20:17;7.80;99.90
21353;DHT22;10834;52.268;6.770;2024-03-02T07:23:01;7.80;99.90
21353;DHT22;10834;52.268;6.770;2024-03-02T07:25:45;7.80;99.90
21353;DHT22;10834;52.268;6.770;2024-03-02T07:28:29;7.80;99.90
21353;DHT22;10834;52.268;6.770;2024-03-02T07:31:15;7.90;99.90
21353;DHT22;10834;52.268;6.770;2024-03-02T07:33:59;8.00;99.90
21353;DHT22;10834;52.268;6.770;2024-03-02T07:36:43;8.20;99.90
21353;DHT22;10834;52.268;6.770;2024-03-02T07:39:27;8.40;99.90
21353;DHT22;10834;52.268;6.770;2024-03-02T07:42:11;8.40;99.90
21353;DHT22;10834;52.268;6.770;2024-03-02T07:44:56;8.40;99.90
21353;DHT22;10834;52.268;6.770;2024-03-02T07:47:40;8.40;99.90
21353;DHT22;10834;52.268;6.770;2024-03-02T07:50:25;8.40;99.90
21353;DHT22;10834;52.268;6.770;2024-03-02T07:53:09;8.50;99.90
21353;DHT22;10834;52.268;6.770;2024-03-02T07:55:53;8.60;99.90
21353;DHT22;10834;52.268;6.770;2024-03-02T07:58:37;8.60;99.90
21353;DHT22;10834;52.268;6.770;2024-03-02T08:01:21;8.70;99.90
21353;DHT22;10834;52.268;6.770;2024-03-02T08:04:06;8.70;99.90
21353;DHT22;10834;52.268;6.770;2024-03-02T08:06:50;8.80;99.90
21353;DHT22;10834;52.268;6.770;2024-03-02T08:09:34;8.90;99.90
21353;DHT22;10834;52.268;6.770;2024-03-02T08:12:19;9.00;99.90
21353;DHT22;10834;52.268;6.770;2024-03-02T08:15:05;9.80;99.90
21353;DHT22;10834;52.268;6.770;2024-03-02T08:17:50;11.20;99.90
21353;DHT22;10834;52.268;6.770;2024-03-02T08:20:34;11.20;99.90
21353;DHT22;10834;52.268;6.770;2024-03-02T08:23:19;11.70;99.90
21353;DHT22;10834;52.268;6.770;2024-03-02T08:26:03;12.80;99.90
21353;DHT22;10834;52.268;6.770;2024-03-02T08:28:48;13.70;99.90
21353;DHT22;10834;52.268;6.770;2024-03-02T08:31:33;13.90;99.60
21353;DHT22;10834;52.268;6.770;2024-03-02T08:34:17;14.10;99.20
21353;DHT22;10834;52.268;6.770;2024-03-02T08:37:02;14.80;96.00
21353;DHT22;10834;52.268;6.770;2024-03-02T08:39:46;15.20;92.80
21353;DHT22;10834;52.268;6.770;2024-03-02T08:42:30;15.60;86.10
21353;DHT22;10834;52.268;6.770;2024-03-02T08:45:14;15.60;82.70
21353;DHT22;10834;52.268;6.770;2024-03-02T08:47:59;16.50;79.90
21353;DHT22;10834;52.268;6.770;2024-03-02T08:50:43;18.60;68.70
21353;DHT22;10834;52.268;6.770;2024-03-02T08:53:27;20.00;58.70
21353;DHT22;10834;52.268;6.770;2024-03-02T08:56:12;21.70;55.60
21353;DHT22;10834;52.268;6.770;2024-03-02T08:58:57;22.50;50.00
21353;DHT22;10834;52.268;6.770;2024-03-02T09:01:42;21.90;48.30
21353;DHT22;10834;52.268;6.770;2024-03-02T09:04:26;22.00;49.10
21353;DHT22;10834;52.268;6.770;2024-03-02T09:07:10;22.10;47.30
21353;DHT22;10834;52.268;6.770;2024-03-02T09:09:54;21.70;47.70
21353;DHT22;10834;52.268;6.770;2024-03-02T09:12:38;21.60;48.10
21353;DHT22;10834;52.268;6.770;2024-03-02T09:15:23;21.00;48.60
21353;DHT22;10834;52.268;6.770;2024-03-02T09:18:07;21.60;48.50
21353;DHT22;10834;52.268;6.770;2024-03-02T09:20:51;20.90;47.90
21353;DHT22;10834;52.268;6.770;2024-03-02T09:23:35;20.00;49.40
21353;DHT22;10834;52.268;6.770;2024-03-02T09:26:20;20.20;49.40
21353;DHT22;10834;52.268;6.770;2024-03-02T09:29:04;20.40;50.40
21353;DHT22;10834;52.268;6.770;2024-03-02T09:31:48;20.90;49.90
21353;DHT22;10834;52.268;6.770;2024-03-02T09:34:34;21.60;49.00
21353;DHT22;10834;52.268;6.770;2024-03-02T09:37:18;21.80;47.90
21353;DHT22;10834;52.268;6.770;2024-03-02T09:40:03;21.70;47.60
21353;DHT22;10834;52.268;6.770;2024-03-02T09:42:47;20.70;47.90
21353;DHT22;10834;52.268;6.770;2024-03-02T09:45:36;20.40;49.60
21353;DHT22;10834;52.268;6.770;2024-03-02T09:48:21;20.40;50.00
21353;DHT22;10834;52.268;6.770;2024-03-02T09:51:05;19.90;51.10
21353;DHT22;10834;52.268;6.770;2024-03-02T09:53:50;19.30;51.70
21353;DHT22;10834;52.268;6.770;2024-03-02T09:56:34;19.40;52.40
21353;DHT22;10834;52.268;6.770;2024-03-02T09:59:18;19.40;52.50
21353;DHT22;10834;52.268;6.770;2024-03-02T10:02:04;19.60;51.30
21353;DHT22;10834;52.268;6.770;2024-03-02T10:04:50;19.30;51.60
21353;DHT22;10834;52.268;6.770;2024-03-02T10:07:34;19.40;52.40
21353;DHT22;10834;52.268;6.770;2024-03-02T10:10:19;19.70;51.30
21353;DHT22;10834;52.268;6.770;2024-03-02T10:13:04;19.30;52.70
21353;DHT22;10834;52.268;6.770;2024-03-02T10:15:52;19.10;52.70
21353;DHT22;10834;52.268;6.770;2024-03-02T10:18:36;18.30;52.00
21353;DHT22;10834;52.268;6.770;2024-03-02T10:21:20;17.20;52.40
21353;DHT22;10834;52.268;6.770;2024-03-02T10:24:07;16.70;54.90
21353;DHT22;10834;52.268;6.770;2024-03-02T10:26:52;16.60;55.00
21353;DHT22;10834;52.268;6.770;2024-03-02T10:29:37;16.30;54.00
21353;DHT22;10834;52.268;6.770;2024-03-02T10:32:23;16.10;55.90
21353;DHT22;10834;52.268;6.770;2024-03-02T10:35:08;16.00;55.90
21353;DHT22;10834;52.268;6.770;2024-03-02T10:37:53;15.90;56.50
21353;DHT22;10834;52.268;6.770;2024-03-02T10:40:37;15.70;55.70
21353;DHT22;10834;52.268;6.770;2024-03-02T10:43:21;15.70;56.90
21353;DHT22;10834;52.268;6.770;2024-03-02T10:46:06;15.60;58.00
21353;DHT22;10834;52.268;6.770;2024-03-02T10:48:50;15.80;58.50
21353;DHT22;10834;52.268;6.770;2024-03-02T10:51:34;15.80;58.50
21353;DHT22;10834;52.268;6.770;2024-03-02T10:54:20;15.80;57.80
21353;DHT22;10834;52.268;6.770;2024-03-02T10:57:10;15.60;58.30
21353;DHT22;10834;52.268;6.770;2024-03-02T11:00:02;15.50;59.20
21353;DHT22;10834;52.268;6.770;2024-03-02T11:02:56;15.40;58.60
21353;DHT22;10834;52.268;6.770;2024-03-02T11:05:44;15.20;58.00
21353;DHT22;10834;52.268;6.770;2024-03-02T11:08:29;15.10;59.30
21353;DHT22;10834;52.268;6.770;2024-03-02T11:11:16;15.30;59.50
21353;DHT22;10834;52.268;6.770;2024-03-02T11:14:04;15.50;59.00
21353;DHT22;10834;52.268;6.770;2024-03-02T11:16:52;15.60;58.00
21353;DHT22;10834;52.268;6.770;2024-03-02T11:19:41;15.60;58.40
21353;DHT22;10834;52.268;6.770;2024-03-02T11:22:26;15.80;59.10
21353;DHT22;10834;52.268;6.770;2024-03-02T11:25:25;16.10;57.50
21353;DHT22;10834;52.268;6.770;2024-03-02T11:28:09;16.00;57.10
21353;DHT22;10834;52.268;6.770;2024-03-02T11:30:53;16.00;57.10
21353;DHT22;10834;52.268;6.770;2024-03-02T11:33:37;15.80;56.90
21353;DHT22;10834;52.268;6.770;2024-03-02T11:36:21;15.60;58.40
21353;DHT22;10834;52.268;6.770;2024-03-02T11:39:06;15.60;58.50
21353;DHT22;10834;52.268;6.770;2024-03-02T11:41:50;15.70;59.70
21353;DHT22;10834;52.268;6.770;2024-03-02T11:44:34;15.50;58.00
21353;DHT22;10834;52.268;6.770;2024-03-02T11:47:19;15.30;58.50
21353;DHT22;10834;52.268;6.770;2024-03-02T11:50:04;15.20;60.20
21353;DHT22;10834;52.268;6.770;2024-03-02T11:52:50;15.10;60.20
21353;DHT22;10834;52.268;6.770;2024-03-02T11:55:36;15.10;60.90
21353;DHT22;10834;52.268;6.770;2024-03-02T11:58:20;15.20;60.10
21353;DHT22;10834;52.268;6.770;2024-03-02T12:01:07;15.10;61.30
21353;DHT22;10834;52.268;6.770;2024-03-02T12:03:52;15.20;62.00
21353;DHT22;10834;52.268;6.770;2024-03-02T12:06:39;15.30;61.40
21353;DHT22;10834;52.268;6.770;2024-03-02T12:09:23;15.30;60.50
21353;DHT22;10834;52.268;6.770;2024-03-02T12:12:08;15.20;60.00
21353;DHT22;10834;52.268;6.770;2024-03-02T12:14:53;15.20;60.40
21353;DHT22;10834;52.268;6.770;2024-03-02T12:17:39;15.10;60.80
21353;DHT22;10834;52.268;6.770;2024-03-02T12:20:24;15.00;60.90
21353;DHT22;10834;52.268;6.770;2024-03-02T12:23:09;15.10;62.70
21353;DHT22;10834;52.268;6.770;2024-03-02T12:25:54;15.10;60.60
21353;DHT22;10834;52.268;6.770;2024-03-02T12:28:38;15.20;60.80
21353;DHT22;10834;52.268;6.770;2024-03-02T12:31:22;15.30;60.10
21353;DHT22;10834;52.268;6.770;2024-03-02T12:34:08;15.30;59.30
21353;DHT22;10834;52.268;6.770;2024-03-02T12:36:52;15.10;59.10
21353;DHT22;10834;52.268;6.770;2024-03-02T12:39:37;15.10;60.00
21353;DHT22;10834;52.268;6.770;2024-03-02T12:42:21;15.10;58.90
21353;DHT22;10834;52.268;6.770;2024-03-02T12:45:06;15.00;59.40
21353;DHT22;10834;52.268;6.770;2024-03-02T12:47:51;14.90;61.00
21353;DHT22;10834;52.268;6.770;2024-03-02T12:50:38;14.90;59.90
21353;DHT22;10834;52.268;6.770;2024-03-02T12:53:22;14.90;62.00
21353;DHT22;10834;52.268;6.770;2024-03-02T12:56:08;14.90;62.70
21353;DHT22;10834;52.268;6.770;2024-03-02T12:58:56;15.00;61.20
21353;DHT22;10834;52.268;6.770;2024-03-02T13:01:50;15.00;59.30
21353;DHT22;10834;52.268;6.770;2024-03-02T13:04:34;15.00;58.60
21353;DHT22;10834;52.268;6.770;2024-03-02T13:07:20;14.90;59.30
21353;DHT22;10834;52.268;6.770;2024-03-02T13:10:07;14.90;59.50
21353;DHT22;10834;52.268;6.770;2024-03-02T13:12:56;15.00;59.20
21353;DHT22;10834;52.268;6.770;2024-03-02T13:15:40;15.10;59.50
21353;DHT22;10834;52.268;6.770;2024-03-02T13:18:27;15.20;58.50
21353;DHT22;10834;52.268;6.770;2024-03-02T13:21:12;15.20;58.50
21353;DHT22;10834;52.268;6.770;2024-03-02T13:23:56;15.20;56.80
21353;DHT22;10834;52.268;6.770;2024-03-02T13:26:40;15.20;56.80
21353;DHT22;10834;52.268;6.770;2024-03-02T13:29:24;15.30;57.30
21353;DHT22;10834;52.268;6.770;2024-03-02T13:32:08;15.40;56.10
21353;DHT22;10834;52.268;6.770;2024-03-02T13:34:53;15.30;56.20
21353;DHT22;10834;52.268;6.770;2024-03-02T13:37:38;15.40;57.50
21353;DHT22;10834;52.268;6.770;2024-03-02T13:40:22;15.50;56.70
21353;DHT22;10834;52.268;6.770;2024-03-02T13:43:07;15.50;56.30
21353;DHT22;10834;52.268;6.770;2024-03-02T13:45:52;15.40;56.50
21353;DHT22;10834;52.268;6.770;2024-03-02T13:48:37;15.30;56.60
21353;DHT22;10834;52.268;6.770;2024-03-02T13:51:21;15.10;57.00
21353;DHT22;10834;52.268;6.770;2024-03-02T13:54:06;14.90;56.90
21353;DHT22;10834;52.268;6.770;2024-03-02T13:56:50;14.90;58.20
21353;DHT22;10834;52.268;6.770;2024-03-02T13:59:34;14.90;58.40
21353;DHT22;10834;52.268;6.770;2024-03-02T14:02:19;14.90;58.20
21353;DHT22;10834;52.268;6.770;2024-03-02T14:05:03;14.80;58.20
21353;DHT22;10834;52.268;6.770;2024-03-02T14:07:47;14.80;58.70
21353;DHT22;10834;52.268;6.770;2024-03-02T14:10:32;14.80;58.00
21353;DHT22;10834;52.268;6.770;2024-03-02T14:13:16;14.70;58.50
21353;DHT22;10834;52.268;6.770;2024-03-02T14:16:01;14.70;59.20
21353;DHT22;10834;52.268;6.770;2024-03-02T14:18:45;14.60;59.10
21353;DHT22;10834;52.268;6.770;2024-03-02T14:21:29;14.50;59.70
21353;DHT22;10834;52.268;6.770;2024-03-02T14:24:13;14.50;59.90
21353;DHT22;10834;52.268;6.770;2024-03-02T14:26:57;14.50;60.30
21353;DHT22;10834;52.268;6.770;2024-03-02T14:29:45;14.60;60.70
21353;DHT22;10834;52.268;6.770;2024-03-02T14:32:30;14.70;60.70
21353;DHT22;10834;52.268;6.770;2024-03-02T14:35:14;14.90;60.50
21353;DHT22;10834;52.268;6.770;2024-03-02T14:37:59;15.00;59.00
21353;DHT22;10834;52.268;6.770;2024-03-02T14:40:43;15.00;59.90
21353;DHT22;10834;52.268;6.770;2024-03-02T14:43:27;14.90;59.80
21353;DHT22;10834;52.268;6.770;2024-03-02T14:46:12;14.80;59.40
21353;DHT22;10834;52.268;6.770;2024-03-02T14:48:56;14.70;59.20
21353;DHT22;10834;52.268;6.770;2024-03-02T14:51:40;14.60;59.40
21353;DHT22;10834;52.268;6.770;2024-03-02T14:54:25;14.60;60.60
21353;DHT22;10834;52.268;6.770;2024-03-02T14:57:09;14.50;59.10
21353;DHT22;10834;52.268;6.770;2024-03-02T14:59:54;14.50;58.80
21353;DHT22;10834;52.268;6.770;2024-03-02T15:02:39;14.40;58.80
21353;DHT22;10834;52.268;6.770;2024-03-02T15:05:23;14.30;58.60
21353;DHT22;10834;52.268;6.770;2024-03-02T15:08:10;14.20;58.80
21353;DHT22;10834;52.268;6.770;2024-03-02T15:10:54;14.20;59.30
21353;DHT22;10834;52.268;6.770;2024-03-02T15:13:43;14.10;59.10
21353;DHT22;10834;52.268;6.770;2024-03-02T15:16:27;14.10;59.50
21353;DHT22;10834;52.268;6.770;2024-03-02T15:19:12;14.10;59.80
21353;DHT22;10834;52.268;6.770;2024-03-02T15:21:57;14.10;60.70
21353;DHT22;10834;52.268;6.770;2024-03-02T15:24:41;14.10;61.90
21353;DHT22;10834;52.268;6.770;2024-03-02T15:27:25;14.00;61.00
21353;DHT22;10834;52.268;6.770;2024-03-02T15:30:11;14.00;61.60
21353;DHT22;10834;52.268;6.770;2024-03-02T15:32:56;13.90;62.10
21353;DHT22;10834;52.268;6.770;2024-03-02T15:35:40;13.90;62.20
21353;DHT22;10834;52.268;6.770;2024-03-02T15:38:24;13.90;63.30
21353;DHT22;10834;52.268;6.770;2024-03-02T15:41:08;13.80;64.80
21353;DHT22;10834;52.268;6.770;2024-03-02T15:43:53;13.70;66.00
21353;DHT22;10834;52.268;6.770;2024-03-02T15:46:37;13.60;67.60
21353;DHT22;10834;52.268;6.770;2024-03-02T15:49:21;13.50;68.30
21353;DHT22;10834;52.268;6.770;2024-03-02T15:52:05;13.50;68.10
21353;DHT22;10834;52.268;6.770;2024-03-02T15:54:49;13.40;69.10
21353;DHT22;10834;52.268;6.770;2024-03-02T15:57:34;13.40;69.90
21353;DHT22;10834;52.268;6.770;2024-03-02T16:00:19;13.40;71.40
21353;DHT22;10834;52.268;6.770;2024-03-02T16:03:03;13.30;72.90
21353;DHT22;10834;52.268;6.770;2024-03-02T16:05:47;13.30;75.50
21353;DHT22;10834;52.268;6.770;2024-03-02T16:08:32;13.30;76.20
21353;DHT22;10834;52.268;6.770;2024-03-02T16:11:16;13.40;77.50
21353;DHT22;10834;52.268;6.770;2024-03-02T16:14:01;13.40;78.20
21353;DHT22;10834;52.268;6.770;2024-03-02T16:16:45;13.40;79.70
21353;DHT22;10834;52.268;6.770;2024-03-02T16:19:29;13.30;80.50
21353;DHT22;10834;52.268;6.770;2024-03-02T16:22:13;13.30;81.30
21353;DHT22;10834;52.268;6.770;2024-03-02T16:24:57;13.30;82.30
21353;DHT22;10834;52.268;6.770;2024-03-02T16:27:42;13.30;82.70
21353;DHT22;10834;52.268;6.770;2024-03-02T16:30:26;13.30;82.90
21353;DHT22;10834;52.268;6.770;2024-03-02T16:33:10;13.30;82.90
21353;DHT22;10834;52.268;6.770;2024-03-02T16:35:54;13.30;83.50
21353;DHT22;10834;52.268;6.770;2024-03-02T16:38:38;13.30;84.10
21353;DHT22;10834;52.268;6.770;2024-03-02T16:41:24;13.20;84.10
21353;DHT22;10834;52.268;6.770;2024-03-02T16:44:13;13.20;85.00
21353;DHT22;10834;52.268;6.770;2024-03-02T16:46:57;13.20;85.60
21353;DHT22;10834;52.268;6.770;2024-03-02T16:49:45;13.20;86.70
21353;DHT22;10834;52.268;6.770;2024-03-02T16:52:29;13.20;86.40
21353;DHT22;10834;52.268;6.770;2024-03-02T16:55:13;13.20;87.60
21353;DHT22;10834;52.268;6.770;2024-03-02T16:57:58;13.10;87.70
21353;DHT22;10834;52.268;6.770;2024-03-02T17:00:42;13.00;89.60
21353;DHT22;10834;52.268;6.770;2024-03-02T17:03:26;12.90;90.10
21353;DHT22;10834;52.268;6.770;2024-03-02T17:06:10;12.80;90.10
21353;DHT22;10834;52.268;6.770;2024-03-02T17:08:54;12.80;90.60
21353;DHT22;10834;52.268;6.770;2024-03-02T17:11:38;12.70;91.30
21353;DHT22;10834;52.268;6.770;2024-03-02T17:14:23;12.60;91.60
21353;DHT22;10834;52.268;6.770;2024-03-02T17:17:08;12.60;92.00
21353;DHT22;10834;52.268;6.770;2024-03-02T17:19:53;12.50;92.60
21353;DHT22;10834;52.268;6.770;2024-03-02T17:22:37;12.50;92.60
21353;DHT22;10834;52.268;6.770;2024-03-02T17:25:21;12.50;92.60
21353;DHT22;10834;52.268;6.770;2024-03-02T17:28:24;12.50;93.10
21353;DHT22;10834;52.268;6.770;2024-03-02T17:31:09;12.40;93.30
21353;DHT22;10834;52.268;6.770;2024-03-02T17:33:53;12.40;93.60
21353;DHT22;10834;52.268;6.770;2024-03-02T17:36:37;12.40;93.90
21353;DHT22;10834;52.268;6.770;2024-03-02T17:39:21;12.40;94.20
21353;DHT22;10834;52.268;6.770;2024-03-02T17:42:05;12.30;94.90